Airfield :
LOGIN :

Register | Disclaimer

   EN    FR    IT 

 










Legend :    VFR   Marginal VFR   IFR   Intensive IFR   Very Intensive IFR
Visi :
Ceiling :
>= 8 km
>= 3000ft
5 to 8 km
1000 to 3000 ft
1500m to 5 km
500 to 1000 ft
800 to 1500m
200 to 500 ft
< 800m
< 200 ft
Symbols :   Thunderstorms  Fog  Heavy snow  Heavy precipitations  Wind > 20 kt
SIGMETs :     Misc.  Thunderstorms  Icing  Turbulence  Mountain Waves  Volcanic Ashes






- Airport Elevation : 609 ft
- IATA code : BJZ


LEBZ - Badajoz

CURRENT METAR :
  • 211600Z 23006KT 170V260 CAVOK 16/10 Q1006

EXPIRED METARs :
  • 211500Z 23006KT 190V270 9999 SCT020TCU 16/11 Q1007
  • 211400Z 23004KT 190V250 9999 FEW014 15/11 Q1007

TAF TAF LEBZ
Valid from the 21 at 12:00 until the 22 at 12:00 UTC


211100Z 2112/2212 22005KT 9999 SCT025 TX13/2115Z TN09/2207Z
TEMPO 2202/2212 4000 RA BKN010
PROB40
TEMPO 2209/2212 24020G30KT 2000 SHRA SCT020TCU



MET'MAP, your aeronautical weather chart ! - Copyright ORBIFLY December 2007 - Disclaimer

ORBIFLY MET'MAP TEAM :

Programming & Development : Alexandra Zaïnal
Concept & Development : Baudouin d'Aumeries
Co-Development & Prog : Marc-Olivier Méhu
Technical & hardware support : Manuel Goepfert

Contact : metmap@orbifly.com




SOURCES & CREDITS :

   NOAA